Latest Coastal Weather Observations for Larapuna (Eddystone Point)

IDT60701

Issued at 9:52 pm EDT Friday 19 December 2014 (issued every 10 minutes, with the page automatically refreshed every 10 minutes)

About coastal observations | Map of coastal stations | Coastal observations for TAS | Marine services | Other Formats
Station Details ID: 092045 Name: LARAPUNA (EDDYSTONE POINT) Lat: -40.99 Lon: 148.35 Height: 19.7 m
Data from the previous 72 hours. | See also: Recent months at Larapuna (Eddystone Point)
Date/Time
EDT
Temp

°C
Wind Pressure Rain
since 9am
mm
Weather Cloud Vis
km
Sea
Height
m
Swell
Dir
 
Speed
knots
Gust
knots
hPa Trend Height
m
Period
s
Dir
19/09:30pm 14.4 SW 10 11 1014.0 - 0.0 - - - - - - -
19/09:00pm 15.1 SW 10 11 1013.6 - 0.0 - - - - - - -
19/08:30pm 16.3 W 9 12 1013.4 - 0.0 - - - - - - -
19/08:00pm 17.2 W 12 17 1013.0 - 0.0 - - - - - - -
19/07:30pm 18.3 WNW 11 15 1012.7 - 0.0 - - - - - - -
19/07:00pm 17.8 WNW 13 17 1012.6 - 0.0 - - - - - - -
19/06:30pm 17.2 WNW 16 23 1012.4 - 0.0 - - - - - - -
19/06:00pm 17.5 WNW 13 19 1012.2 - 0.0 - - - - - - -
19/05:30pm 17.9 NW 17 23 1012.1 - 0.0 - - - - - - -
19/05:00pm 17.5 NW 16 24 1011.9 - 0.0 - - - - - - -
19/04:30pm 17.1 NW 15 22 1012.2 - 0.0 - - - - - - -
19/04:00pm 17.1 NW 13 20 1012.3 - 0.0 - - - - - - -
19/03:30pm 17.7 WNW 15 20 1012.2 - 0.0 - - - - - - -
19/03:00pm 18.3 N 17 24 1012.3 - 0.0 - - - - - - -
19/02:30pm 15.7 NNE 17 21 1012.5 - 0.0 - - - - - - -
19/02:00pm 15.6 NNE 14 17 1012.6 - 0.0 - - - - - - -
19/01:30pm 17.0 N 12 14 1012.8 - 0.0 - - - - - - -
19/01:00pm 16.8 NNE 8 10 1012.7 - 0.0 - - - - - - -
19/12:30pm 18.4 ENE 6 8 1012.6 - 0.0 - - - - - - -
19/12:00pm 19.3 ESE 6 8 1012.5 - 0.0 - - - - - - -
19/11:30am 18.2 SE 8 11 1012.3 - 0.0 - - - - - - -
19/11:00am 19.4 SSE 12 14 1012.2 - 0.0 - - - - - - -
19/10:30am 18.9 SSE 12 15 1012.2 - 0.0 - - - - - - -
19/10:00am 18.3 S 15 18 1012.1 - 0.0 - - - - - - -
19/09:30am 17.9 S 12 15 1012.0 - 0.0 - - - - - - -
19/09:00am 16.5 S 17 22 1012.0 - 0.0 - - - - - - -
19/08:30am 15.9 SSW 14 17 1011.6 - 0.0 - - - - - - -
19/08:00am 14.8 SSW 11 14 1011.4 - 0.0 - - - - - - -
19/07:30am 14.0 SSW 11 13 1011.1 - 0.0 - - - - - - -
19/07:00am 12.5 SW 11 12 1010.6 - 0.0 - - - - - - -
19/06:30am 10.8 SW 10 11 1010.2 - 0.0 - - - - - - -
19/06:00am 9.6 WSW 8 9 1009.8 - 0.0 - - - - - - -
19/05:30am 9.9 SW 7 8 1009.5 - 0.0 - - - - - - -
19/05:00am 9.7 W 9 10 1009.1 - 0.0 - - - - - - -
19/04:30am 9.7 W 11 13 1008.6 - 0.0 - - - - - - -
19/04:00am 9.9 W 10 11 1008.1 - 0.0 - - - - - - -
19/03:30am 10.1 W 11 14 1007.9 - 0.0 - - - - - - -
19/03:00am 10.1 W 11 13 1007.7 - 0.0 - - - - - - -
19/02:30am 10.3 W 11 13 1007.5 - 0.0 - - - - - - -
19/02:00am 10.8 W 11 14 1007.5 - 0.0 - - - - - - -
19/01:30am 11.0 W 12 15 1007.3 - 0.0 - - - - - - -
19/01:00am 11.3 W 12 16 1007.0 - 0.0 - - - - - - -
19/12:30am 11.6 WNW 10 13 1007.1 - 0.0 - - - - - - -
19/12:00am 12.0 W 11 13 1006.9 - 0.0 - - - - - - -
 
Date/Time
EDT
Temp

°C
Wind Pressure Rain
since 9am
mm
Weather Cloud Vis
km
Sea
Height
m
Swell
Dir
 
Speed
knots
Gust
knots
hPa Trend Height
m
Period
s
Dir
18/11:30pm 12.5 WNW 11 14 1006.9 - 0.0 - - - - - - -
18/11:00pm 12.7 WNW 8 11 1006.5 - 0.0 - - - - - - -
18/10:30pm 13.1 WNW 6 8 1006.4 - 0.0 - - - - - - -
18/10:00pm 13.4 WNW 9 15 1005.9 - 0.0 - - - - - - -
18/09:30pm 13.5 WNW 9 14 1005.7 - 0.0 - - - - - - -
18/09:00pm 14.0 WNW 16 23 1005.1 - 0.0 - - - - - - -
18/08:32pm 14.5 WNW 15 26 1004.8 - 0.0 - - - - - - -
18/08:30pm 14.5 WNW 14 19 1004.8 - 0.0 - - - - - - -
18/08:00pm 15.4 WNW 13 20 1004.5 - 0.0 - - - - - - -
18/07:30pm 16.2 WNW 18 25 1004.1 - 0.0 - - - - - - -
18/07:00pm 17.6 WNW 15 21 1003.6 - 0.0 - - - - - - -
18/06:30pm 18.4 WNW 17 24 1003.0 - 0.0 - - - - - - -
18/06:00pm 18.8 WNW 19 29 1002.8 - 0.0 - - - - - - -
18/05:30pm 18.9 W 21 33 1002.6 - 0.0 - - - - - - -
18/05:28pm 18.6 W 21 33 1002.5 - 0.0 - - - - - - -
18/05:00pm 18.7 WNW 23 31 1002.3 - 0.0 - - - - - - -
18/04:37pm 19.0 NW 20 30 1002.3 - 0.0 - - - - - - -
18/04:30pm 19.4 NW 19 26 1002.3 - 0.0 - - - - - - -
18/04:00pm 20.0 NW 20 28 1002.1 - 0.0 - - - - - - -
18/03:38pm 19.7 NNW 20 27 1002.0 - 0.0 - - - - - - -
18/03:30pm 17.8 NNW 22 27 1001.9 - 0.0 - - - - - - -
18/03:00pm 19.4 N 20 25 1001.9 - 0.0 - - - - - - -
18/02:30pm 19.2 N 20 24 1002.4 - 0.0 - - - - - - -
18/02:00pm 19.5 NNE 19 23 1002.8 - 0.0 - - - - - - -
18/01:30pm 18.9 NNE 19 23 1003.2 - 0.0 - - - - - - -
18/01:00pm 18.9 NNE 16 19 1003.7 - 0.0 - - - - - - -
18/12:30pm 18.5 NNE 12 14 1004.1 - 0.0 - - - - - - -
18/12:00pm 17.1 NNE 13 16 1004.4 - 0.0 - - - - - - -
18/11:30am 17.1 NNE 13 16 1004.7 - 0.0 - - - - - - -
18/11:00am 17.2 N 12 15 1005.2 - 0.0 - - - - - - -
18/10:30am 18.5 N 11 14 1005.7 - 0.0 - - - - - - -
18/10:00am 18.0 N 15 18 1005.9 - 0.0 - - - - - - -
18/09:30am 17.7 N 11 15 1006.2 - 0.0 - - - - - - -
18/09:00am 16.6 N 14 17 1006.5 - 0.2 - - - - - - -
18/08:30am 15.5 N 17 21 1006.5 - 0.2 - - - - - - -
18/08:00am 15.5 N 18 23 1006.5 - 0.2 - - - - - - -
18/07:30am 15.1 N 17 23 1006.5 - 0.2 - - - - - - -
18/07:00am 14.5 N 12 17 1006.6 - 0.2 - - - - - - -
18/06:30am 13.5 NW 7 9 1006.7 - 0.2 - - - - - - -
18/06:00am 12.8 NW 7 11 1006.7 - 0.2 - - - - - - -
18/05:30am 12.8 NNW 10 13 1006.6 - 0.2 - - - - - - -
18/05:00am 12.7 NW 11 14 1006.3 - 0.2 - - - - - - -
18/04:30am 12.5 NW 11 14 1006.3 - 0.2 - - - - - - -
18/04:00am 12.3 NW 10 13 1005.9 - 0.2 - - - - - - -
18/03:30am 12.0 NW 9 12 1006.0 - 0.2 - - - - - - -
18/03:00am 11.7 NW 10 12 1006.1 - 0.2 - - - - - - -
18/02:30am 12.0 NNW 8 11 1006.0 - 0.2 - - - - - - -
18/02:00am 12.1 NNW 9 12 1006.2 - 0.2 - - - - - - -
18/01:30am 11.9 NW 10 13 1006.3 - 0.2 - - - - - - -
18/01:00am 12.3 NW 9 11 1006.3 - 0.2 - - - - - - -
18/12:30am 12.8 NW 11 15 1006.3 - 0.2 - - - - - - -
18/12:00am 13.0 WNW 11 15 1006.3 - 0.2 - - - - - - -
 
Date/Time
EDT
Temp

°C
Wind Pressure Rain
since 9am
mm
Weather Cloud Vis
km
Sea
Height
m
Swell
Dir
 
Speed
knots
Gust
knots
hPa Trend Height
m
Period
s
Dir
17/11:30pm 13.1 WNW 13 18 1006.4 - 0.2 - - - - - - -
17/11:00pm 13.0 WNW 13 16 1006.6 - 0.2 - - - - - - -
17/10:30pm 13.0 NW 12 17 1006.9 - 0.2 - - - - - - -
17/10:00pm 13.5 NW 12 16 1007.0 - 0.2 - - - - - - -
17/09:30pm 13.6 WNW 13 17 1006.9 - 0.2 - - - - - - -
17/09:00pm 14.0 WNW 14 21 1006.6 - 0.2 - - - - - - -
17/08:30pm 14.3 WNW 13 19 1006.4 - 0.2 - - - - - - -
17/08:00pm 15.2 WNW 17 24 1006.2 - 0.2 - - - - - - -
17/07:30pm 16.1 WNW 20 28 1005.7 - 0.2 - - - - - - -
17/07:00pm 16.8 WNW 19 25 1005.3 - 0.2 - - - - - - -
17/06:39pm 17.1 WNW 18 29 1005.1 - 0.2 - - - - - - -
17/06:30pm 17.4 WNW 18 26 1005.0 - 0.2 - - - - - - -
17/06:00pm 18.1 WNW 19 28 1004.7 - 0.2 - - - - - - -
17/05:53pm 17.9 WNW 18 28 1004.7 - 0.2 - - - - - - -
17/05:30pm 18.3 WNW 19 27 1004.8 - 0.2 - - - - - - -
17/05:00pm 18.4 WNW 21 30 1004.7 - 0.2 - - - - - - -
17/04:39pm 18.4 WNW 21 31 1004.6 - 0.2 - - - - - - -
17/04:30pm 18.3 WNW 21 30 1004.6 - 0.2 - - - - - - -
17/04:14pm 18.6 NW 20 32 1004.5 - 0.2 - - - - - - -
17/04:00pm 18.8 NW 22 30 1004.5 - 0.2 - - - - - - -
17/03:45pm 19.0 WNW 21 31 1004.6 - 0.2 - - - - - - -
17/03:30pm 18.1 NW 24 33 1004.5 - 0.2 - - - - - - -
17/03:00pm 18.8 WNW 20 30 1004.6 - 0.2 - - - - - - -
17/02:30pm 17.6 NW 24 31 1004.4 - 0.2 - - - - - - -
17/02:06pm 19.2 NW 22 32 1004.4 - 0.2 - - - - - - -
17/02:00pm 19.0 NW 20 27 1004.5 - 0.2 - - - - - - -
17/01:30pm 19.4 NW 19 26 1004.3 - 0.2 - - - - - - -
17/01:00pm 19.6 NW 17 27 1004.5 - 0.2 - - - - - - -
17/12:59pm 19.6 NW 17 27 1004.4 - 0.2 - - - - - - -
17/12:30pm 19.7 WNW 16 24 1004.4 - 0.2 - - - - - - -
17/12:20pm 19.4 W 16 25 1004.3 - 0.2 - - - - - - -
17/12:00pm 18.9 W 16 22 1004.3 - 0.2 - - - - - - -
17/11:38am 19.1 W 15 25 1004.1 - 0.2 - - - - - - -
17/11:30am 19.0 W 16 22 1004.1 - 0.2 - - - - - - -
17/11:00am 18.2 W 13 21 1003.9 - 0.2 - - - - - - -
17/10:30am 17.6 W 13 19 1003.7 - 0.0 - - - - - - -
17/10:00am 16.6 WNW 15 21 1003.4 - 0.0 - - - - - - -
17/09:30am 15.8 W 17 23 1003.2 - 0.0 - - - - - - -
17/09:00am 15.3 W 12 18 1003.1 - 3.4 - - - - - - -
17/08:30am 14.3 W 12 18 1002.8 - 3.4 - - - - - - -
17/08:00am 13.5 WSW 10 13 1002.7 - 3.4 - - - - - - -
17/07:30am 12.9 SW 6 9 1002.1 - 3.4 - - - - - - -
17/07:00am 12.2 SW 5 7 1001.4 - 3.4 - - - - - - -
17/06:30am 10.6 WSW 6 11 1000.8 - 3.4 - - - - - - -
17/06:00am 10.4 W 12 18 1000.1 - 3.4 - - - - - - -
17/05:30am 10.9 WNW 12 16 999.4 - 3.4 - - - - - - -
17/05:00am 10.7 WNW 13 19 998.6 - 3.4 - - - - - - -
17/04:30am 10.9 W 14 19 998.1 - 3.4 - - - - - - -
17/04:00am 11.2 W 14 20 997.3 - 3.4 - - - - - - -
17/03:30am 11.5 W 17 27 996.4 - 3.4 - - - - - - -
17/03:00am 11.8 W 17 28 995.8 - 3.4 - - - - - - -
17/02:58am 11.8 W 16 28 995.8 - 3.4 - - - - - - -
17/02:30am 11.7 WNW 11 17 995.7 - 3.4 - - - - - - -
17/02:00am 12.0 W 17 28 995.6 - 3.4 - - - - - - -
17/01:50am 12.1 WNW 18 28 995.3 - 3.4 - - - - - - -
17/01:30am 12.3 WNW 21 27 994.8 - 3.4 - - - - - - -
17/01:01am 12.5 WNW 19 29 994.4 - 3.4 - - - - - - -
17/01:00am 12.4 WNW 18 25 994.4 - 3.4 - - - - - - -
17/12:30am 12.3 W 19 25 994.1 - 3.4 - - - - - - -
17/12:00am 12.6 WNW 20 30 993.3 - 3.4 - - - - - - -
 
Date/Time
EDT
Temp

°C
Wind Pressure Rain
since 9am
mm
Weather Cloud Vis
km
Sea
Height
m
Swell
Dir
 
Speed
knots
Gust
knots
hPa Trend Height
m
Period
s
Dir
16/11:41pm 12.5 W 18 32 993.4 - 3.4 - - - - - - -
16/11:30pm 12.5 WNW 16 23 993.2 - 3.4 - - - - - - -
16/11:10pm 12.8 WNW 17 27 993.1 - 3.4 - - - - - - -
16/11:00pm 12.7 WNW 18 25 993.1 - 3.4 - - - - - - -
16/10:48pm 12.8 WNW 15 27 993.2 - 3.4 - - - - - - -
16/10:30pm 13.2 WNW 14 21 993.5 - 3.4 - - - - - - -
16/10:00pm 13.0 WNW 18 28 993.3 - 3.4 - - - - - - -

Other Formats:

Comma delimited format used in spreadsheet applications
http://www.bom.gov.au/fwo/IDT60701/IDT60701.94983.axf

JavaScript Object Notation format (JSON) in row-major order
http://www.bom.gov.au/fwo/IDT60701/IDT60701.94983.json